Time;durP1;ratioP1;P1;durP2;ratioP2;P2;SDS_P1;SDS_P2;PMS_P1;PMS_P2;Temp;Humidity;BMP_temperature;BMP_pressure;BME280_temperature;BME280_humidity;BME280_pressure;Samples;Min_cycle;Max_cycle;Signal;HPM_P1;HPM_P2
2023/03/10 00:00:15;;;;;;;14.37;6.70;;;;;;;4.55;100.00;98665.28;5134035;27;20023;-83
2023/03/10 00:02:48;;;;;;;;;;;;;;;4.57;100.00;98665.22;5116555;27;20387;-84
2023/03/10 00:05:19;;;;;;;10.07;5.20;;;;;;;4.57;100.00;98665.22;5134004;27;20014;-85
2023/03/10 00:07:46;;;;;;;9.10;4.68;;;;;;;4.59;100.00;98674.56;5133690;27;20023;-85
2023/03/10 00:10:16;;;;;;;;;;;;;;;4.60;100.00;98671.13;5134823;27;20431;-85
2023/03/10 00:12:42;;;;;;;6.30;3.50;;;;;;;4.60;100.00;98668.53;5114161;28;19915;-85
2023/03/10 00:15:09;;;;;;;5.82;3.25;;;;;;;4.62;100.00;98673.63;5112771;28;20030;-86
2023/03/10 00:17:35;;;;;;;5.18;2.90;;;;;;;4.66;100.00;98671.84;5113773;28;20031;-86
2023/03/10 00:20:00;;;;;;;4.47;2.80;;;;;;;4.66;100.00;98671.84;5105612;28;20508;-85
2023/03/10 00:22:29;;;;;;;4.80;2.90;;;;;;;4.70;100.00;98671.72;5113106;28;20044;-85
2023/03/10 00:24:54;;;;;;;4.30;2.72;;;;;;;4.69;100.00;98667.47;5113452;28;20173;-85
2023/03/10 00:27:19;;;;;;;3.83;2.70;;;;;;;4.65;100.00;98658.16;5113735;28;20115;-85
2023/03/10 00:29:44;;;;;;;3.00;2.37;;;;;;;4.74;100.00;98659.63;5112446;28;20436;-85
2023/03/10 00:32:10;;;;;;;4.00;2.70;;;;;;;4.72;100.00;98659.69;5113229;28;20016;-86
2023/03/10 00:34:35;;;;;;;4.63;2.70;;;;;;;4.73;100.00;98658.78;5113879;28;20022;-86
2023/03/10 00:37:00;;;;;;;3.90;2.57;;;;;;;4.67;100.00;98645.28;5124363;27;20491;-86
2023/03/10 00:39:26;;;;;;;3.83;2.53;;;;;;;4.71;100.00;98654.56;5134254;27;20098;-86
2023/03/10 00:42:03;;;;;;;3.28;2.50;;;;;;;4.70;100.00;98656.31;5133471;27;20019;-86
2023/03/10 00:44:28;;;;;;;3.95;2.78;;;;;;;4.67;100.00;98653.81;5134118;27;20026;-86
2023/03/10 00:47:05;;;;;;;4.05;2.58;;;;;;;4.67;100.00;98653.81;5133720;27;20027;-86
2023/03/10 00:49:30;;;;;;;;;;;;;;;4.76;100.00;98665.59;5133825;27;20019;-86
2023/03/10 00:51:55;;;;;;;3.63;2.37;;;;;;;4.75;100.00;98667.28;5133487;27;20432;-85
2023/03/10 00:54:29;;;;;;;2.97;2.42;;;;;;;4.77;100.00;98662.97;5133732;27;20068;-86
2023/03/10 00:57:13;;;;;;;3.67;2.63;;;;;;;4.75;100.00;98658.75;5132702;28;20051;-85
2023/03/10 00:59:38;;;;;;;3.35;2.20;;;;;;;4.73;100.00;98661.34;5134037;28;20096;-86
2023/03/10 01:02:04;;;;;;;3.73;2.50;;;;;;;4.70;100.00;98655.44;5133669;28;20066;-86
2023/03/10 01:04:35;;;;;;;3.58;2.40;;;;;;;4.77;100.00;98664.72;5133275;28;20019;-86
2023/03/10 01:07:00;;;;;;;4.40;2.70;;;;;;;4.84;100.00;98675.66;5133380;28;20118;-86
2023/03/10 01:09:27;;;;;;;4.78;2.70;;;;;;;4.81;100.00;98666.28;5133318;28;20051;-86
2023/03/10 01:11:52;;;;;;;2.92;2.40;;;;;;;4.82;100.00;98662.84;5133068;28;20023;-86
2023/03/10 01:14:18;;;;;;;3.10;2.47;;;;;;;4.81;100.00;98652.63;5133839;28;20034;-85
2023/03/10 01:16:49;;;;;;;2.60;2.25;;;;;;;4.77;100.00;98639.84;5133768;28;20050;-86
2023/03/10 01:19:15;;;;;;;3.92;2.60;;;;;;;4.88;100.00;98659.25;5132283;28;20542;-86
2023/03/10 01:21:40;;;;;;;3.05;2.30;;;;;;;4.82;100.00;98639.72;5133590;28;20054;-86
2023/03/10 01:24:15;;;;;;;3.40;2.50;;;;;;;4.88;100.00;98643.84;5133275;28;20431;-86
2023/03/10 01:26:40;;;;;;;3.22;2.20;;;;;;;4.86;100.00;98638.75;5133694;28;20436;-85
2023/03/10 01:29:05;;;;;;;2.78;2.28;;;;;;;4.92;100.00;98630.84;5133189;27;20043;-86
2023/03/10 01:31:37;;;;;;;3.33;2.33;;;;;;;4.99;100.00;98634.09;5133004;28;20031;-85
2023/03/10 01:34:02;;;;;;;4.32;2.50;;;;;;;5.02;100.00;98626.31;5133324;28;20083;-86
2023/03/10 01:36:28;;;;;;;2.40;2.10;;;;;;;5.16;100.00;98632.81;5132996;28;20412;-86
2023/03/10 01:39:05;;;;;;;2.20;2.00;;;;;;;5.26;100.00;98617.03;5132590;28;20023;-85
2023/03/10 01:41:31;;;;;;;3.92;2.53;;;;;;;5.35;100.00;98615.94;5133521;28;20026;-86
2023/03/10 01:43:56;;;;;;;3.93;2.70;;;;;;;5.56;100.00;98629.91;5133234;27;20020;-85
2023/03/10 01:46:39;;;;;;;4.83;3.00;;;;;;;5.72;100.00;98634.56;5136433;27;20027;-86
2023/03/10 01:49:13;;;;;;;3.63;2.67;;;;;;;5.82;100.00;98627.41;5136862;27;20665;-86
2023/03/10 01:51:42;;;;;;;3.40;2.60;;;;;;;5.90;100.00;98625.41;5137169;27;20512;-86
2023/03/10 01:54:13;;;;;;;3.22;2.60;;;;;;;6.03;100.00;98619.03;5136156;27;20378;-87
2023/03/10 01:56:40;;;;;;;4.30;2.70;;;;;;;6.12;100.00;98609.31;5137215;27;20144;-86
2023/03/10 01:59:06;;;;;;;3.33;2.67;;;;;;;6.16;100.00;98592.88;5136883;27;20134;-86
2023/03/10 02:01:32;;;;;;;3.50;2.40;;;;;;;6.24;100.00;98606.31;5136450;27;20102;-86
2023/03/10 02:04:26;;;;;;;2.57;2.10;;;;;;;6.25;100.00;98604.59;5136874;27;20043;-85
2023/03/10 02:07:00;;;;;;;2.45;2.10;;;;;;;6.33;100.00;98611.16;5136142;27;20023;-87
2023/03/10 02:09:39;;;;;;;2.22;2.00;;;;;;;6.36;100.00;98604.22;5136837;27;20099;-86
2023/03/10 02:12:22;;;;;;;2.40;2.20;;;;;;;6.44;100.00;98615.09;5118503;27;20019;-86
2023/03/10 02:15:01;;;;;;;1.80;1.70;;;;;;;6.41;100.00;98598.03;5135885;27;20371;-85
2023/03/10 02:17:27;;;;;;;2.08;1.88;;;;;;;6.51;100.00;98614.03;5136831;27;20072;-86
2023/03/10 02:20:08;;;;;;;2.30;2.10;;;;;;;6.55;100.00;98609.59;5136271;27;20023;-85
2023/03/10 02:22:35;;;;;;;4.00;2.35;;;;;;;6.61;100.00;98614.53;5135884;27;20026;-86
2023/03/10 02:25:18;;;;;;;;;;;;;;;6.69;100.00;98596.22;5136928;27;20034;-85
2023/03/10 02:27:52;;;;;;;3.20;2.50;;;;;;;6.71;100.00;98587.53;5135936;27;19934;-85
2023/03/10 02:30:38;;;;;;;3.80;2.70;;;;;;;6.75;100.00;98580.53;5136495;27;20039;-86
2023/03/10 02:33:17;;;;;;;4.32;2.90;;;;;;;6.77;100.00;98576.16;5136173;27;20030;-86
2023/03/10 02:35:54;;;;;;;3.80;2.55;;;;;;;6.80;100.00;98573.47;5135670;27;20379;-86
2023/03/10 02:38:20;;;;;;;2.80;2.47;;;;;;;6.73;100.00;98559.97;5136083;27;20050;-85
2023/03/10 02:40:48;;;;;;;3.33;2.50;;;;;;;6.80;100.00;98576.91;5136235;27;20043;-85
2023/03/10 02:43:26;;;;;;;3.58;2.50;;;;;;;6.73;100.00;98559.13;5135459;27;20019;-85
2023/03/10 02:45:57;;;;;;;3.42;2.58;;;;;;;6.83;100.00;98565.63;5136024;27;20152;-85
2023/03/10 02:48:39;;;;;;;3.67;2.90;;;;;;;6.85;100.00;98563.84;5136534;27;20030;-85
2023/03/10 02:51:10;;;;;;;3.58;2.78;;;;;;;6.80;100.00;98553.69;5135740;27;20907;-85
2023/03/10 02:53:35;;;;;;;2.65;2.40;;;;;;;6.85;100.00;98557.84;5135939;27;20035;-85
2023/03/10 02:56:01;;;;;;;3.83;2.77;;;;;;;6.85;100.00;98550.94;5134429;27;20094;-85
2023/03/10 02:58:28;;;;;;;3.83;2.78;;;;;;;6.89;100.00;98555.09;5136046;27;20157;-86
2023/03/10 03:00:54;;;;;;;2.83;2.55;;;;;;;6.87;100.00;98546.56;5135482;27;20030;-84
2023/03/10 03:03:20;;;;;;;3.50;2.70;;;;;;;6.98;100.00;98550.50;5135025;27;20102;-85
2023/03/10 03:05:46;;;;;;;3.78;2.95;;;;;;;6.97;100.00;98552.22;5134250;27;20035;-85
2023/03/10 03:08:12;;;;;;;4.53;2.90;;;;;;;6.95;100.00;98538.53;5135698;27;20034;-85
2023/03/10 03:10:44;;;;;;;4.73;2.80;;;;;;;6.90;100.00;98532.72;5135060;27;20023;-85
2023/03/10 03:13:09;;;;;;;2.85;2.50;;;;;;;6.98;100.00;98542.75;5135510;27;20035;-85
2023/03/10 03:15:35;;;;;;;3.27;2.50;;;;;;;6.96;100.00;98542.81;5135613;27;20106;-85
2023/03/10 03:18:04;;;;;;;2.70;2.42;;;;;;;6.94;100.00;98542.00;5134468;27;20110;-85
2023/03/10 03:20:31;;;;;;;2.60;2.40;;;;;;;6.91;100.00;98537.81;5135343;27;20408;-85
2023/03/10 03:22:56;;;;;;;;;;;;;;;6.90;100.00;98541.28;5135521;27;20080;-85
2023/03/10 03:25:23;;;;;;;2.90;2.23;;;;;;;6.87;100.00;98531.09;5134934;27;19915;-85
2023/03/10 03:27:49;;;;;;;;;;;;;;;6.87;100.00;98541.41;5135504;27;20023;-85
2023/03/10 03:30:18;;;;;;;2.70;2.40;;;;;;;6.84;100.00;98536.38;5135436;27;20297;-85
2023/03/10 03:32:44;;;;;;;2.92;2.40;;;;;;;6.86;100.00;98537.16;5134649;27;20023;-85
2023/03/10 03:35:14;;;;;;;2.50;2.23;;;;;;;6.87;100.00;98533.66;5134983;27;20027;-85
2023/03/10 03:37:40;;;;;;;2.10;1.90;;;;;;;6.88;100.00;98535.34;5135473;27;20114;-86
2023/03/10 03:40:12;;;;;;;1.90;1.80;;;;;;;6.91;100.00;98532.66;5134380;27;20114;-85
2023/03/10 03:42:46;;;;;;;1.98;1.80;;;;;;;6.89;100.00;98534.44;5134720;27;20545;-85
2023/03/10 03:45:32;;;;;;;1.92;1.75;;;;;;;6.93;100.00;98540.34;5134075;27;20035;-85
2023/03/10 03:48:04;;;;;;;1.73;1.63;;;;;;;6.97;100.00;98529.00;5133914;27;20096;-85
2023/03/10 03:50:30;;;;;;;1.75;1.65;;;;;;;7.00;100.00;98538.38;5135017;27;20027;-86
2023/03/10 03:52:56;;;;;;;1.80;1.70;;;;;;;7.02;100.00;98534.00;5133843;27;20084;-86
2023/03/10 03:55:24;;;;;;;1.90;1.70;;;;;;;7.05;100.00;98536.47;5134849;27;20015;-85
2023/03/10 03:57:49;;;;;;;2.17;1.70;;;;;;;7.05;100.00;98537.28;5134832;27;20038;-85
2023/03/10 04:00:19;;;;;;;2.00;1.80;;;;;;;6.99;100.00;98513.47;5133641;27;20023;-85
2023/03/10 04:02:44;;;;;;;1.60;1.50;;;;;;;7.10;100.00;98530.22;5134653;27;20019;-85
2023/03/10 04:05:28;;;;;;;1.80;1.60;;;;;;;7.13;100.00;98533.59;5134531;27;20408;-85
2023/03/10 04:07:53;;;;;;;2.53;1.55;;;;;;;7.08;100.00;98519.13;5132739;27;20027;-85
2023/03/10 04:10:22;;;;;;;2.20;1.83;;;;;;;7.19;100.00;98517.88;5134472;27;20091;-85
2023/03/10 04:12:48;;;;;;;3.50;2.05;;;;;;;7.21;100.00;98521.25;5134216;27;20485;-85
2023/03/10 04:15:13;;;;;;;2.80;1.80;;;;;;;7.18;100.00;98513.59;5133915;27;20015;-85
2023/03/10 04:17:39;;;;;;;2.93;1.90;;;;;;;7.24;100.00;98513.38;5134349;27;20026;-85
2023/03/10 04:20:13;;;;;;;3.33;2.00;;;;;;;7.24;100.00;98510.81;5133227;27;20459;-85
2023/03/10 04:22:38;;;;;;;2.05;1.85;;;;;;;7.24;100.00;98513.38;5134523;27;20027;-85
2023/03/10 04:25:04;;;;;;;2.80;1.90;;;;;;;7.30;100.00;98523.44;5134160;27;20026;-85
2023/03/10 04:27:30;;;;;;;2.97;2.10;;;;;;;7.27;100.00;98513.25;5133522;27;20031;-85
2023/03/10 04:30:22;;;;;;;3.33;1.92;;;;;;;7.29;100.00;98516.63;5132475;27;20504;-85
2023/03/10 04:32:48;;;;;;;4.05;2.10;;;;;;;7.20;100.00;98506.66;5133784;27;20030;-85
2023/03/10 04:35:13;;;;;;;3.37;2.10;;;;;;;7.26;100.00;98509.84;5133451;27;20031;-85
2023/03/10 04:37:39;;;;;;;3.13;1.70;;;;;;;7.23;100.00;98501.38;5133930;27;20023;-85
2023/03/10 04:40:12;;;;;;;3.93;1.80;;;;;;;7.31;100.00;98512.25;5134107;27;20379;-85
2023/03/10 04:42:37;;;;;;;3.67;1.60;;;;;;;7.26;100.00;98498.69;5133292;27;20019;-86
2023/03/10 04:45:03;;;;;;;2.03;1.67;;;;;;;7.27;100.00;98500.34;5133959;27;20063;-85
2023/03/10 04:47:37;;;;;;;3.10;1.65;;;;;;;7.33;100.00;98505.28;5134004;27;20378;-85
2023/03/10 04:50:20;;;;;;;1.95;1.48;;;;;;;7.26;100.00;98489.19;5132025;27;20057;-85
2023/03/10 04:52:59;;;;;;;3.28;1.70;;;;;;;7.28;100.00;98501.19;5115429;27;20027;-85
2023/03/10 04:55:24;;;;;;;2.72;1.63;;;;;;;7.20;100.00;98492.03;5131384;27;20031;-85
2023/03/10 04:57:57;;;;;;;2.80;1.60;;;;;;;7.22;100.00;98492.78;5133738;27;20127;-86
2023/03/10 05:00:25;;;;;;;2.00;1.60;;;;;;;7.16;100.00;98490.47;5133968;28;20084;-86
2023/03/10 05:02:50;;;;;;;1.50;1.23;;;;;;;7.10;100.00;98494.13;5132823;28;20019;-85
2023/03/10 05:05:16;;;;;;;1.50;1.40;;;;;;;7.08;100.00;98498.50;5133648;28;20183;-85
2023/03/10 05:07:41;;;;;;;3.00;1.20;;;;;;;7.03;100.00;98487.53;5133325;28;20110;-85
2023/03/10 05:10:08;;;;;;;1.30;1.17;;;;;;;7.06;100.00;98495.13;5132687;28;20378;-85
2023/03/10 05:12:33;;;;;;;;;;;;;;;7.04;100.00;98491.75;5133989;28;20065;-85
2023/03/10 05:15:06;;;;;;;2.00;1.27;;;;;;;7.02;100.00;98493.59;5133429;28;19911;-85
2023/03/10 05:17:31;;;;;;;1.95;1.30;;;;;;;7.07;100.00;98490.81;5133126;28;20019;-85
2023/03/10 05:19:57;;;;;;;4.90;2.00;;;;;;;7.10;100.00;98488.09;5136597;27;20442;-85
2023/03/10 05:22:22;;;;;;;1.42;1.33;;;;;;;7.09;100.00;98495.03;5137925;27;20019;-85
2023/03/10 05:24:48;;;;;;;2.15;1.50;;;;;;;7.08;100.00;98484.78;5136786;27;20026;-85
2023/03/10 05:27:17;;;;;;;2.40;1.60;;;;;;;7.09;100.00;98491.63;5137656;27;20466;-85
2023/03/10 05:29:42;;;;;;;2.88;1.58;;;;;;;7.08;100.00;98488.19;5137257;27;20289;-85
2023/03/10 05:32:07;;;;;;;2.30;1.60;;;;;;;7.07;100.00;98483.91;5136644;27;20020;-85
2023/03/10 05:34:33;;;;;;;2.75;1.58;;;;;;;7.05;100.00;98483.13;5137660;27;20023;-85
2023/03/10 05:37:07;;;;;;;1.30;1.20;;;;;;;7.03;100.00;98487.53;5137341;27;20023;-85
2023/03/10 05:39:42;;;;;;;2.45;1.58;;;;;;;7.04;100.00;98481.44;5136771;27;20102;-85
2023/03/10 05:42:23;;;;;;;1.80;1.48;;;;;;;7.13;100.00;98494.91;5137257;27;20065;-85
2023/03/10 05:45:00;;;;;;;1.42;1.15;;;;;;;7.08;100.00;98489.94;5136211;27;20011;-85
2023/03/10 05:47:26;;;;;;;1.73;1.13;;;;;;;7.10;100.00;98498.44;5137290;27;20027;-85
2023/03/10 05:49:51;;;;;;;1.43;1.17;;;;;;;7.10;100.00;98501.00;5136898;27;20023;-85
2023/03/10 05:52:23;;;;;;;2.33;1.17;;;;;;;7.07;100.00;98490.81;5136539;27;20068;-85
2023/03/10 05:54:48;;;;;;;3.78;1.40;;;;;;;7.12;100.00;98501.78;5136692;27;20424;-84
2023/03/10 05:57:22;;;;;;;1.23;1.10;;;;;;;7.14;100.00;98494.84;5137099;27;20064;-85
2023/03/10 05:59:48;;;;;;;2.78;1.30;;;;;;;7.11;100.00;98484.63;5135897;27;20023;-86
2023/03/10 06:02:13;;;;;;;1.43;1.10;;;;;;;7.11;100.00;98482.06;5137188;27;20072;-85
2023/03/10 06:04:41;;;;;;;1.25;0.98;;;;;;;7.16;100.00;98492.19;5136758;27;20348;-85
2023/03/10 06:07:07;;;;;;;2.20;1.30;;;;;;;7.16;100.00;98493.03;5135676;27;20474;-85
2023/03/10 06:09:32;;;;;;;2.43;1.67;;;;;;;7.21;100.00;98493.69;5136897;27;20035;-86
2023/03/10 06:12:01;;;;;;;4.10;1.77;;;;;;;7.21;100.00;98498.84;5136686;27;20035;-83
2023/03/10 06:14:26;;;;;;;4.75;1.77;;;;;;;7.22;100.00;98503.09;5136203;27;20062;-85
2023/03/10 06:16:55;;;;;;;2.00;1.40;;;;;;;7.23;100.00;98504.78;5136442;27;20049;-85
2023/03/10 06:22:05;;;;;;;1.20;1.10;;;;;;;7.20;100.00;98501.50;5136057;27;20046;-84
2023/03/10 06:24:30;;;;;;;1.13;1.00;;;;;;;7.21;100.00;98509.16;5136851;27;20019;-85
2023/03/10 06:27:04;;;;;;;1.23;0.97;;;;;;;7.26;100.00;98509.84;5135588;27;20054;-84
2023/03/10 06:29:29;;;;;;;1.38;0.80;;;;;;;7.22;100.00;98510.03;5136083;27;20039;-84
2023/03/10 06:35:01;;;;;;;4.05;1.50;;;;;;;7.22;100.00;98505.69;5090013;22;20084;-85
2023/03/10 06:37:26;;;;;;;1.00;0.90;;;;;;;7.20;100.00;98510.09;5074887;28;20551;-85
2023/03/10 06:39:52;;;;;;;1.57;0.90;;;;;;;7.23;100.00;98509.94;5056624;28;20029;-85
2023/03/10 06:42:17;;;;;;;2.13;1.20;;;;;;;7.25;100.00;98515.06;5074380;28;20155;-85
2023/03/10 06:44:58;;;;;;;1.50;1.00;;;;;;;7.29;100.00;98531.28;5074850;28;20082;-85
2023/03/10 06:47:23;;;;;;;1.33;1.23;;;;;;;7.22;100.00;98512.59;5074834;28;20032;-85
2023/03/10 06:49:49;;;;;;;2.17;1.07;;;;;;;7.24;100.00;98511.63;5073293;28;20508;-85
2023/03/10 06:55:15;;;;;;;1.63;1.10;;;;;;;7.26;100.00;98516.75;5044838;28;20451;-86
2023/03/10 06:57:56;;;;;;;1.40;0.90;;;;;;;7.28;100.00;98516.69;5074699;28;20036;-87
2023/03/10 07:00:21;;;;;;;2.65;1.23;;;;;;;7.25;100.00;98509.91;5074456;28;20111;-83
2023/03/10 07:02:47;;;;;;;1.90;0.90;;;;;;;7.32;100.00;98526.00;5071053;28;20128;-84
2023/03/10 07:05:13;;;;;;;0.80;0.80;;;;;;;7.33;100.00;98525.94;5074624;28;20035;-83
2023/03/10 07:07:38;;;;;;;0.75;0.75;;;;;;;7.32;100.00;98519.09;5073455;28;20558;-85
2023/03/10 07:10:05;;;;;;;1.00;1.00;;;;;;;7.35;100.00;98524.13;5073754;28;20159;-83
2023/03/10 07:12:31;;;;;;;0.98;0.98;;;;;;;7.33;100.00;98523.34;5074760;28;20376;-83
2023/03/10 07:14:57;;;;;;;0.75;0.75;;;;;;;7.38;100.00;98530.91;5074242;28;20530;-84
2023/03/10 07:17:22;;;;;;;0.80;0.80;;;;;;;7.39;100.00;98527.44;5073870;28;20021;-84
2023/03/10 07:19:47;;;;;;;1.83;0.90;;;;;;;7.41;100.00;98534.19;5074116;28;20032;-84
2023/03/10 07:22:13;;;;;;;0.90;0.90;;;;;;;7.43;100.00;98534.13;5074188;28;20134;-84
2023/03/10 07:24:38;;;;;;;1.25;0.85;;;;;;;7.39;100.00;98530.00;5073427;28;20021;-83
2023/03/10 07:27:03;;;;;;;2.00;0.93;;;;;;;7.48;100.00;98539.13;5073869;28;20032;-84
2023/03/10 07:29:29;;;;;;;2.10;1.07;;;;;;;7.49;100.00;98538.19;5074094;28;20096;-84
2023/03/10 07:31:54;;;;;;;2.03;1.00;;;;;;;7.52;100.00;98544.09;5073142;28;20031;-84
2023/03/10 07:34:20;;;;;;;4.53;1.80;;;;;;;7.56;100.00;98540.50;5074205;28;20075;-84
2023/03/10 07:36:48;;;;;;;1.75;1.40;;;;;;;7.64;100.00;98539.34;5073878;28;20541;-85
2023/03/10 07:39:14;;;;;;;1.75;1.48;;;;;;;7.72;100.00;98548.44;5073346;28;20036;-85
2023/03/10 07:41:42;;;;;;;2.40;1.50;;;;;;;7.80;100.00;98548.16;5073343;28;20025;-84
2023/03/10 07:44:07;;;;;;;1.80;1.10;;;;;;;7.95;100.00;98549.25;5072658;28;20472;-84
2023/03/10 07:46:33;;;;;;;1.23;0.80;;;;;;;8.09;100.00;98548.69;5073755;28;20028;-85
2023/03/10 07:49:02;;;;;;;1.90;1.23;;;;;;;8.25;100.00;98550.63;5073711;28;20029;-86
2023/03/10 07:51:28;;;;;;;1.48;1.17;;;;;;;8.40;100.00;98554.28;5072775;28;20038;-84
2023/03/10 07:53:53;;;;;;;0.70;0.70;;;;;;;8.48;100.00;98544.50;5073230;28;20024;-85
2023/03/10 07:56:20;;;;;;;0.80;0.70;;;;;;;8.55;100.00;98542.50;5073332;28;20393;-85
2023/03/10 07:58:59;;;;;;;3.85;1.40;;;;;;;8.55;100.00;98547.66;5072089;28;20031;-85
2023/03/10 08:01:25;;;;;;;4.47;1.40;;;;;;;8.45;100.00;98534.25;5073321;28;20423;-85
2023/03/10 08:03:56;;;;;;;2.33;1.30;;;;;;;8.52;100.00;98547.78;5073047;28;20032;-84
2023/03/10 08:07:01;;;;;;;1.48;1.15;;;;;;;8.54;100.00;98551.16;5072124;28;20029;-84
2023/03/10 08:09:51;;;;;;;1.65;0.90;;;;;;;8.57;100.00;98551.00;5073671;28;20477;-86
2023/03/10 08:12:18;;;;;;;0.95;0.70;;;;;;;8.62;100.00;98546.47;5072217;28;20063;-85
2023/03/10 08:14:43;;;;;;;1.17;1.00;;;;;;;8.66;100.00;98542.88;5073351;28;20438;-85
2023/03/10 08:17:08;;;;;;;2.73;1.20;;;;;;;8.72;100.00;98552.91;5073074;28;20059;-85
2023/03/10 08:19:33;;;;;;;4.63;1.43;;;;;;;8.77;100.00;98552.72;5072719;28;20082;-84
2023/03/10 08:22:00;;;;;;;2.87;1.47;;;;;;;8.84;100.00;98553.28;5072974;28;20476;-85
2023/03/10 08:24:27;;;;;;;3.75;1.33;;;;;;;8.89;100.00;98553.94;5073558;28;20028;-87
2023/03/10 08:26:52;;;;;;;1.58;0.88;;;;;;;8.93;100.00;98548.53;5071841;28;20032;-86
2023/03/10 08:29:33;;;;;;;4.40;1.47;;;;;;;9.06;100.00;98559.16;5073346;28;20032;-86
2023/03/10 08:31:58;;;;;;;2.65;1.20;;;;;;;9.05;100.00;98552.31;5072698;28;20028;-84
2023/03/10 08:34:23;;;;;;;2.50;1.40;;;;;;;9.11;100.00;98559.81;5071993;28;20040;-84
2023/03/10 08:36:48;;;;;;;2.23;0.80;;;;;;;9.14;100.00;98557.97;5072405;28;20031;-84
2023/03/10 08:39:17;;;;;;;1.60;1.03;;;;;;;9.11;100.00;98558.94;5072919;28;20078;-84
2023/03/10 08:41:47;;;;;;;2.63;1.23;;;;;;;9.11;100.00;98564.13;5071746;28;20093;-87
2023/03/10 08:44:16;;;;;;;3.95;1.30;;;;;;;9.05;100.00;98562.66;5073250;28;20047;-86
2023/03/10 08:46:43;;;;;;;2.80;1.40;;;;;;;9.02;100.00;98556.78;5073194;28;20028;-93
2023/03/10 08:49:09;;;;;;;4.30;1.30;;;;;;;8.97;100.00;98551.81;5074129;28;20029;-92
2023/03/10 08:51:44;;;;;;;2.73;1.30;;;;;;;8.93;100.00;98540.78;5074055;28;20020;-92
2023/03/10 08:54:22;;;;;;;3.75;1.30;;;;;;;9.01;100.00;98550.75;5073573;28;20029;-92
2023/03/10 08:59:25;;;;;;;1.20;1.10;;;;;;;9.23;100.00;98558.38;5120022;22;20055;-91
2023/03/10 09:01:51;;;;;;;6.35;1.60;;;;;;;9.35;100.00;98559.53;5114183;28;20069;-91
2023/03/10 09:04:16;;;;;;;4.27;1.70;;;;;;;9.41;100.00;98548.91;5114900;28;20023;-92
2023/03/10 09:06:42;;;;;;;2.63;1.60;;;;;;;9.52;100.00;98560.50;5114937;28;20115;-91
2023/03/10 09:09:09;;;;;;;9.07;2.10;;;;;;;9.46;100.00;98550.47;5114126;28;20024;-91
2023/03/10 09:11:43;;;;;;;4.63;1.65;;;;;;;9.47;100.00;98555.56;5115371;28;20101;-91
2023/03/10 09:14:10;;;;;;;5.05;1.40;;;;;;;9.45;100.00;98549.59;5114808;28;20032;-92
2023/03/10 09:16:36;;;;;;;4.05;1.58;;;;;;;9.42;100.00;98549.75;5114160;28;20030;-91
2023/03/10 09:19:02;;;;;;;8.52;1.73;;;;;;;9.45;100.00;98556.56;5115203;28;20030;-90
2023/03/10 09:21:29;;;;;;;3.83;1.63;;;;;;;9.41;100.00;98553.25;5114825;28;20020;-91
2023/03/10 09:23:54;;;;;;;5.00;1.80;;;;;;;9.38;100.00;98543.88;5114016;28;20111;-91
2023/03/10 09:26:20;;;;;;;6.03;1.60;;;;;;;9.33;100.00;98535.50;5115044;28;20059;-91
2023/03/10 09:28:48;;;;;;;7.00;2.17;;;;;;;9.39;100.00;98542.16;5111162;28;20040;-91
2023/03/10 09:31:35;;;;;;;4.05;1.77;;;;;;;9.50;100.00;98558.00;5104395;28;20044;-91
2023/03/10 09:34:05;;;;;;;2.58;1.50;;;;;;;9.46;100.00;98551.28;5127869;28;20065;-90
2023/03/10 09:36:45;;;;;;;4.78;1.70;;;;;;;9.40;100.00;98539.47;5116771;28;20027;-90
2023/03/10 09:39:11;;;;;;;5.30;1.77;;;;;;;9.39;100.00;98530.03;5114601;28;20065;-91
2023/03/10 09:41:51;;;;;;;5.33;1.70;;;;;;;9.46;100.00;98545.28;5114601;28;20015;-91
2023/03/10 09:44:42;;;;;;;5.55;1.80;;;;;;;9.44;100.00;98545.34;5114325;28;20095;-91
2023/03/10 09:47:26;;;;;;;4.07;1.70;;;;;;;9.41;100.00;98550.66;5114663;28;20175;-91
2023/03/10 09:50:10;;;;;;;3.38;1.52;;;;;;;9.38;100.00;98559.41;5114676;28;20023;-91
2023/03/10 09:52:41;;;;;;;2.17;1.17;;;;;;;9.35;100.00;98562.13;5114424;28;20032;-91
2023/03/10 09:55:18;;;;;;;3.85;1.38;;;;;;;9.33;100.00;98563.13;5115054;28;20063;-90
2023/03/10 09:57:48;;;;;;;2.80;1.40;;;;;;;9.26;100.00;98566.00;5119612;28;20503;-90
2023/03/10 10:00:20;;;;;;;2.20;1.02;;;;;;;9.25;100.00;98564.34;5135299;28;20019;-91
2023/03/10 10:03:03;;;;;;;3.85;1.25;;;;;;;9.31;100.00;98570.13;5094040;22;20486;-91
2023/03/10 10:05:36;;;;;;;6.35;1.70;;;;;;;9.28;100.00;98565.94;5053694;28;20032;-90
2023/03/10 10:08:13;;;;;;;3.35;1.60;;;;;;;9.24;100.00;98572.16;5057241;28;20025;-91
2023/03/10 10:10:42;;;;;;;6.53;1.98;;;;;;;9.21;100.00;98573.13;5057491;28;20025;-90
2023/03/10 10:13:13;;;;;;;3.50;1.60;;;;;;;9.25;100.00;98582.44;5056333;28;20040;-91
2023/03/10 10:16:11;;;;;;;4.03;1.60;;;;;;;9.19;100.00;98569.78;5057038;28;20025;-90
2023/03/10 10:18:42;;;;;;;5.32;1.83;;;;;;;9.23;100.00;98573.09;5061214;28;20032;-90
2023/03/10 10:21:31;;;;;;;7.10;2.28;;;;;;;9.31;100.00;98591.69;5061083;28;20033;-91
2023/03/10 10:24:09;;;;;;;5.35;1.90;;;;;;;9.20;100.00;98571.47;5057077;28;20032;-92
2023/03/10 10:26:36;;;;;;;3.47;1.70;;;;;;;9.23;100.00;98581.69;5056542;28;20053;-91
2023/03/10 10:29:20;;;;;;;4.47;1.77;;;;;;;9.21;100.00;98593.84;5055929;28;20091;-91
2023/03/10 10:32:11;;;;;;;2.50;1.52;;;;;;;9.19;100.00;98595.66;5036853;28;20049;-91
2023/03/10 10:34:53;;;;;;;4.57;2.00;;;;;;;9.09;100.00;98590.09;5035547;28;20033;-90
2023/03/10 10:37:34;;;;;;;4.03;1.55;;;;;;;9.08;100.00;98593.56;5050557;28;20021;-88
2023/03/10 10:40:22;;;;;;;6.25;1.85;;;;;;;9.07;100.00;98596.22;5055228;28;20455;-87
2023/03/10 10:42:55;;;;;;;3.95;1.65;;;;;;;9.06;100.00;98590.22;5055455;28;20021;-87
2023/03/10 10:45:29;;;;;;;6.57;1.60;;;;;;;8.97;100.00;98580.28;5055214;28;20500;-87
2023/03/10 10:47:55;;;;;;;4.45;1.65;;;;;;;8.94;100.00;98570.91;5054384;28;20029;-87
2023/03/10 10:50:36;;;;;;;4.20;1.70;;;;;;;9.03;100.00;98574.00;5055435;28;20029;-88
2023/03/10 10:53:23;;;;;;;3.85;1.52;;;;;;;9.07;100.00;98578.09;5055245;28;20111;-88
2023/03/10 10:56:11;;;;;;;4.35;1.73;;;;;;;9.10;100.00;98576.25;5054334;28;20021;-87
2023/03/10 10:58:39;;;;;;;2.83;1.58;;;;;;;9.06;100.00;98561.75;5054950;28;20036;-88
2023/03/10 11:01:17;;;;;;;5.82;2.13;;;;;;;9.08;100.00;98553.91;5053882;28;20473;-87
2023/03/10 11:03:47;;;;;;;3.35;1.75;;;;;;;9.11;100.00;98556.34;5072111;28;20045;-87
2023/03/10 11:06:13;;;;;;;3.25;1.50;;;;;;;9.19;100.00;98563.78;5074807;28;20035;-85
2023/03/10 11:09:10;;;;;;;4.57;1.60;;;;;;;9.17;100.00;98561.28;5073631;28;20040;-82
2023/03/10 11:11:49;;;;;;;3.22;1.67;;;;;;;9.14;100.00;98547.59;5074156;28;20031;-82
2023/03/10 11:14:51;;;;;;;4.85;1.50;;;;;;;9.19;100.00;98561.19;5074061;28;20109;-83
2023/03/10 11:17:50;;;;;;;6.63;2.33;;;;;;;9.18;100.00;98556.91;5073291;28;20059;-82
2023/03/10 11:20:31;;;;;;;5.68;1.80;;;;;;;9.22;100.00;98555.88;5074427;28;20415;-83
2023/03/10 11:23:10;;;;;;;6.50;2.10;;;;;;;9.10;100.00;98546.91;5073417;28;20016;-83
2023/03/10 11:26:06;;;;;;;7.85;2.20;;;;;;;9.12;100.00;98552.88;5074267;28;20055;-82
2023/03/10 11:29:08;;;;;;;5.45;2.08;;;;;;;9.05;100.00;98541.13;5074145;28;20032;-83
2023/03/10 11:31:48;;;;;;;3.20;1.80;;;;;;;9.01;100.00;98540.41;4985797;28;20039;-83
2023/03/10 11:34:29;;;;;;;4.25;1.60;;;;;;;9.04;100.00;98536.88;5074044;28;20484;-84
2023/03/10 11:37:15;;;;;;;3.28;1.70;;;;;;;9.06;100.00;98535.06;5072142;28;20024;-85
2023/03/10 11:40:06;;;;;;;3.80;1.70;;;;;;;9.07;100.00;98531.53;5073869;28;20090;-84
2023/03/10 11:42:47;;;;;;;4.53;1.85;;;;;;;9.06;100.00;98527.28;5073849;28;20041;-83
2023/03/10 11:45:26;;;;;;;4.47;1.88;;;;;;;9.08;100.00;98530.63;5073213;28;20043;-83
2023/03/10 11:48:21;;;;;;;3.58;1.83;;;;;;;9.03;100.00;98519.66;5073355;28;20028;-83
2023/03/10 11:50:59;;;;;;;2.63;1.70;;;;;;;9.04;100.00;98527.34;5061030;28;20063;-82
2023/03/10 11:53:48;;;;;;;2.78;1.70;;;;;;;8.98;100.00;98517.28;5073668;28;20078;-82
2023/03/10 11:56:17;;;;;;;2.00;1.40;;;;;;;9.01;100.00;98514.53;5073834;28;20399;-82
2023/03/10 11:59:12;;;;;;;3.40;2.28;;;;;;;9.03;100.00;98504.13;5073176;28;20461;-82
2023/03/10 12:01:57;;;;;;;3.17;1.77;;;;;;;9.06;100.00;98506.59;5073340;28;20029;-82
2023/03/10 12:04:26;;;;;;;1.70;1.60;;;;;;;9.09;100.00;98509.00;5072379;28;20075;-82